sensor_id;sensor_type;location;lat;lon;timestamp;pressure;altitude;pressure_sealevel;temperature;humidity
43155;BME280;34212;51.018;13.586;2023-04-30T09:42:13;98544.97;;;11.43;80.34
43155;BME280;34212;51.018;13.586;2023-04-30T09:47:17;98533.56;;;11.82;79.20
43155;BME280;34212;51.018;13.586;2023-04-30T09:52:20;98540.09;;;11.88;78.16
43155;BME280;34212;51.018;13.586;2023-04-30T09:57:23;98538.25;;;11.88;77.99
43155;BME280;34212;51.018;13.586;2023-04-30T10:02:25;98536.25;;;11.90;76.85
43155;BME280;34212;51.018;13.586;2023-04-30T10:07:31;98527.84;;;12.10;77.02
43155;BME280;34212;51.018;13.586;2023-04-30T10:12:50;98517.69;;;12.36;75.44
43155;BME280;34212;51.018;13.586;2023-04-30T10:18:18;98526.06;;;12.33;74.19
43155;BME280;34212;51.018;13.586;2023-04-30T10:23:21;98532.56;;;12.47;75.10
43155;BME280;34212;51.018;13.586;2023-04-30T10:28:23;98519.78;;;12.18;73.63
43155;BME280;34212;51.018;13.586;2023-04-30T10:33:36;98515.97;;;12.12;73.73
43155;BME280;34212;51.018;13.586;2023-04-30T10:39:02;98510.09;;;12.17;73.07
43155;BME280;34212;51.018;13.586;2023-04-30T10:44:06;98509.06;;;12.18;72.71
43155;BME280;34212;51.018;13.586;2023-04-30T10:49:10;98513.94;;;12.14;72.76
43155;BME280;34212;51.018;13.586;2023-04-30T10:54:14;98513.38;;;12.35;73.32
43155;BME280;34212;51.018;13.586;2023-04-30T10:59:17;98504.66;;;12.41;73.48
43155;BME280;34212;51.018;13.586;2023-04-30T11:04:20;98501.31;;;12.39;73.23
43155;BME280;34212;51.018;13.586;2023-04-30T11:09:35;98495.13;;;12.39;73.54
43155;BME280;34212;51.018;13.586;2023-04-30T11:14:42;98490.91;;;12.53;72.70
43155;BME280;34212;51.018;13.586;2023-04-30T11:19:49;98485.78;;;12.66;71.79
43155;BME280;34212;51.018;13.586;2023-04-30T11:25:01;98481.69;;;12.78;71.15
43155;BME280;34212;51.018;13.586;2023-04-30T11:30:09;98483.47;;;12.63;70.98
43155;BME280;34212;51.018;13.586;2023-04-30T11:35:11;98487.94;;;12.70;71.33
43155;BME280;34212;51.018;13.586;2023-04-30T11:40:13;98494.63;;;12.75;71.20
43155;BME280;34212;51.018;13.586;2023-04-30T12:33:32;98466.06;;;13.51;72.06
43155;BME280;34212;51.018;13.586;2023-04-30T12:38:33;98467.47;;;13.47;72.13
43155;BME280;34212;51.018;13.586;2023-04-30T12:43:34;98458.59;;;13.61;72.92
43155;BME280;34212;51.018;13.586;2023-04-30T12:48:43;98457.59;;;13.77;71.60
43155;BME280;34212;51.018;13.586;2023-04-30T12:53:47;98447.91;;;13.91;72.01
43155;BME280;34212;51.018;13.586;2023-04-30T12:58:49;98448.97;;;14.11;70.88
43155;BME280;34212;51.018;13.586;2023-04-30T13:03:51;98444.47;;;14.48;70.67
43155;BME280;34212;51.018;13.586;2023-04-30T13:08:57;98447.41;;;16.36;66.76
43155;BME280;34212;51.018;13.586;2023-04-30T13:13:59;98434.22;;;18.59;66.03
43155;BME280;34212;51.018;13.586;2023-04-30T13:19:01;98431.28;;;18.74;64.43
43155;BME280;34212;51.018;13.586;2023-04-30T13:24:02;98423.22;;;20.29;63.30
43155;BME280;34212;51.018;13.586;2023-04-30T13:29:04;98427.09;;;22.30;61.60
43155;BME280;34212;51.018;13.586;2023-04-30T13:34:05;98414.47;;;23.94;60.51
43155;BME280;34212;51.018;13.586;2023-04-30T13:39:07;98406.72;;;24.74;58.84
43155;BME280;34212;51.018;13.586;2023-04-30T13:44:08;98414.94;;;24.52;58.45
43155;BME280;34212;51.018;13.586;2023-04-30T13:49:10;98400.75;;;23.89;60.35
43155;BME280;34212;51.018;13.586;2023-04-30T13:54:11;98403.88;;;22.51;61.79
43155;BME280;34212;51.018;13.586;2023-04-30T13:59:14;98394.16;;;20.85;61.87
43155;BME280;34212;51.018;13.586;2023-04-30T14:04:16;98399.75;;;19.68;60.39
43155;BME280;34212;51.018;13.586;2023-04-30T14:09:17;98399.91;;;18.73;60.57
43155;BME280;34212;51.018;13.586;2023-04-30T14:14:19;98394.59;;;18.08;61.86
43155;BME280;34212;51.018;13.586;2023-04-30T14:19:21;98382.44;;;17.66;61.17
43155;BME280;34212;51.018;13.586;2023-04-30T14:24:25;98376.72;;;17.29;59.96
43155;BME280;34212;51.018;13.586;2023-04-30T14:29:28;98381.09;;;17.17;61.15
43155;BME280;34212;51.018;13.586;2023-04-30T14:34:29;98372.78;;;17.25;61.52
43155;BME280;34212;51.018;13.586;2023-04-30T14:39:32;98370.97;;;17.97;58.41
43155;BME280;34212;51.018;13.586;2023-04-30T14:44:33;98371.41;;;19.02;57.49
43155;BME280;34212;51.018;13.586;2023-04-30T14:49:34;98366.72;;;19.84;57.96
43155;BME280;34212;51.018;13.586;2023-04-30T14:54:37;98364.56;;;20.23;63.54
43155;BME280;34212;51.018;13.586;2023-04-30T14:59:39;98358.63;;;20.45;65.26
43155;BME280;34212;51.018;13.586;2023-04-30T15:04:42;98370.50;;;21.04;61.43
43155;BME280;34212;51.018;13.586;2023-04-30T15:09:46;98359.63;;;22.39;58.00
43155;BME280;34212;51.018;13.586;2023-04-30T15:14:47;98359.06;;;22.82;54.93
43155;BME280;34212;51.018;13.586;2023-04-30T15:19:49;98365.94;;;21.63;56.64
43155;BME280;34212;51.018;13.586;2023-04-30T15:24:50;98369.88;;;20.30;57.98
43155;BME280;34212;51.018;13.586;2023-04-30T15:29:52;98361.47;;;19.21;56.95
43155;BME280;34212;51.018;13.586;2023-04-30T15:34:54;98366.16;;;18.44;57.97
43155;BME280;34212;51.018;13.586;2023-04-30T15:39:55;98362.31;;;17.82;57.18
43155;BME280;34212;51.018;13.586;2023-04-30T15:44:57;98365.31;;;17.34;57.92
43155;BME280;34212;51.018;13.586;2023-04-30T15:56:53;98345.81;;;16.72;58.02
43155;BME280;34212;51.018;13.586;2023-04-30T16:01:55;98336.44;;;16.48;57.60
43155;BME280;34212;51.018;13.586;2023-04-30T16:06:57;98344.09;;;16.31;58.34
43155;BME280;34212;51.018;13.586;2023-04-30T16:19:03;98343.66;;;16.21;58.26
43155;BME280;34212;51.018;13.586;2023-04-30T16:24:05;98338.69;;;16.31;57.26
43155;BME280;34212;51.018;13.586;2023-04-30T16:29:07;98337.72;;;16.58;57.04
43155;BME280;34212;51.018;13.586;2023-04-30T16:34:11;98329.78;;;18.15;56.96
43155;BME280;34212;51.018;13.586;2023-04-30T16:39:13;98336.19;;;20.26;53.37
43155;BME280;34212;51.018;13.586;2023-04-30T16:44:17;98332.47;;;21.98;52.65
43155;BME280;34212;51.018;13.586;2023-04-30T16:49:19;98331.38;;;22.40;51.76
43155;BME280;34212;51.018;13.586;2023-04-30T16:54:21;98327.22;;;20.97;53.39
43155;BME280;34212;51.018;13.586;2023-04-30T16:59:23;98323.94;;;19.31;55.77
43155;BME280;34212;51.018;13.586;2023-04-30T17:04:25;98319.84;;;18.09;56.48
43155;BME280;34212;51.018;13.586;2023-04-30T17:09:28;98324.03;;;17.33;56.48
43155;BME280;34212;51.018;13.586;2023-04-30T17:14:30;98310.56;;;16.60;60.95
43155;BME280;34212;51.018;13.586;2023-04-30T17:19:31;98324.59;;;16.15;58.24
43155;BME280;34212;51.018;13.586;2023-04-30T17:24:33;98336.41;;;15.73;57.34
43155;BME280;34212;51.018;13.586;2023-04-30T17:29:34;98337.06;;;15.40;58.19
43155;BME280;34212;51.018;13.586;2023-04-30T17:34:37;98321.03;;;15.25;58.99
43155;BME280;34212;51.018;13.586;2023-04-30T17:39:38;98327.81;;;15.15;63.24
43155;BME280;34212;51.018;13.586;2023-04-30T17:44:39;98331.22;;;15.02;62.34
43155;BME280;34212;51.018;13.586;2023-04-30T17:49:41;98324.22;;;14.79;62.52
43155;BME280;34212;51.018;13.586;2023-04-30T17:54:42;98327.78;;;14.59;62.43
43155;BME280;34212;51.018;13.586;2023-04-30T17:59:44;98328.41;;;14.39;62.33
43155;BME280;34212;51.018;13.586;2023-04-30T18:04:45;98331.50;;;14.21;62.87
43155;BME280;34212;51.018;13.586;2023-04-30T18:09:47;98340.78;;;14.04;63.49
43155;BME280;34212;51.018;13.586;2023-04-30T18:14:48;98334.00;;;13.86;63.43
43155;BME280;34212;51.018;13.586;2023-04-30T18:19:50;98339.56;;;13.70;63.51
43155;BME280;34212;51.018;13.586;2023-04-30T18:24:52;98337.75;;;13.56;63.58
43155;BME280;34212;51.018;13.586;2023-04-30T18:29:55;98329.69;;;13.41;64.12
43155;BME280;34212;51.018;13.586;2023-04-30T18:34:56;98342.25;;;13.26;64.40
43155;BME280;34212;51.018;13.586;2023-04-30T18:39:58;98341.22;;;13.12;64.05
43155;BME280;34212;51.018;13.586;2023-04-30T18:45:00;98339.69;;;12.94;64.96
43155;BME280;34212;51.018;13.586;2023-04-30T18:50:02;98338.16;;;12.77;64.76
43155;BME280;34212;51.018;13.586;2023-04-30T18:55:04;98338.31;;;12.61;65.04
43155;BME280;34212;51.018;13.586;2023-04-30T19:00:08;98355.16;;;12.46;65.96
43155;BME280;34212;51.018;13.586;2023-04-30T19:05:10;98350.94;;;12.29;66.78
43155;BME280;34212;51.018;13.586;2023-04-30T19:10:12;98342.47;;;12.17;67.00
43155;BME280;34212;51.018;13.586;2023-04-30T19:15:13;98348.84;;;12.16;67.20
43155;BME280;34212;51.018;13.586;2023-04-30T19:20:15;98351.03;;;12.13;67.61
43155;BME280;34212;51.018;13.586;2023-04-30T19:25:17;98352.41;;;12.09;67.58
43155;BME280;34212;51.018;13.586;2023-04-30T19:30:19;98353.28;;;12.01;67.18
43155;BME280;34212;51.018;13.586;2023-04-30T19:35:20;98354.31;;;11.84;67.62
43155;BME280;34212;51.018;13.586;2023-04-30T19:40:22;98350.91;;;11.67;68.45
43155;BME280;34212;51.018;13.586;2023-04-30T19:45:23;98352.97;;;11.48;69.08
43155;BME280;34212;51.018;13.586;2023-04-30T19:50:25;98354.69;;;11.33;69.35
43155;BME280;34212;51.018;13.586;2023-04-30T19:55:26;98356.22;;;11.19;69.37
43155;BME280;34212;51.018;13.586;2023-04-30T20:00:28;98361.44;;;11.04;70.02
43155;BME280;34212;51.018;13.586;2023-04-30T20:05:33;98356.41;;;10.93;69.89
43155;BME280;34212;51.018;13.586;2023-04-30T20:10:36;98359.28;;;10.83;70.24
43155;BME280;34212;51.018;13.586;2023-04-30T20:15:38;98346.97;;;10.66;70.70
43155;BME280;34212;51.018;13.586;2023-04-30T20:20:41;98352.44;;;10.48;71.37
43155;BME280;34212;51.018;13.586;2023-04-30T20:25:44;98348.09;;;10.31;71.05
43155;BME280;34212;51.018;13.586;2023-04-30T20:30:46;98343.38;;;10.16;72.09
43155;BME280;34212;51.018;13.586;2023-04-30T20:35:48;98350.72;;;10.06;72.29
43155;BME280;34212;51.018;13.586;2023-04-30T20:40:49;98343.69;;;9.97;72.40
43155;BME280;34212;51.018;13.586;2023-04-30T20:45:54;98343.34;;;9.92;72.18
43155;BME280;34212;51.018;13.586;2023-04-30T20:50:57;98346.47;;;9.87;73.36
43155;BME280;34212;51.018;13.586;2023-04-30T20:55:58;98343.78;;;9.79;72.61
43155;BME280;34212;51.018;13.586;2023-04-30T21:01:01;98340.25;;;9.70;72.95
43155;BME280;34212;51.018;13.586;2023-04-30T21:06:05;98336.09;;;9.60;73.36
43155;BME280;34212;51.018;13.586;2023-04-30T21:11:07;98335.34;;;9.49;73.16
43155;BME280;34212;51.018;13.586;2023-04-30T21:16:09;98335.97;;;9.35;73.36
43155;BME280;34212;51.018;13.586;2023-04-30T21:21:11;98335.78;;;9.29;73.20
43155;BME280;34212;51.018;13.586;2023-04-30T21:26:12;98340.72;;;9.23;73.30
43155;BME280;34212;51.018;13.586;2023-04-30T21:31:14;98340.34;;;9.18;73.74
43155;BME280;34212;51.018;13.586;2023-04-30T21:36:16;98341.84;;;9.13;73.87
43155;BME280;34212;51.018;13.586;2023-04-30T21:41:18;98336.84;;;9.10;73.96
43155;BME280;34212;51.018;13.586;2023-04-30T21:46:20;98322.03;;;9.07;73.86
43155;BME280;34212;51.018;13.586;2023-04-30T21:51:21;98327.97;;;9.01;74.05
43155;BME280;34212;51.018;13.586;2023-04-30T21:56:23;98317.13;;;8.94;74.08
